Airfield :
LOGIN :

Register | Disclaimer

   EN    FR    IT 

 










Legend :    VFR   Marginal VFR   IFR   Intensive IFR   Very Intensive IFR
Visi :
Ceiling :
>= 8 km
>= 3000ft
5 to 8 km
1000 to 3000 ft
1500m to 5 km
500 to 1000 ft
800 to 1500m
200 to 500 ft
< 800m
< 200 ft
Symbols :   Thunderstorms  Fog  Heavy snow  Heavy precipitations  Wind > 20 kt
SIGMETs :     Misc.  Thunderstorms  Icing  Turbulence  Mountain Waves  Volcanic Ashes






- Airport Elevation : 187 ft


ETNW - Wunstorf AB

CURRENT METAR :
  • 122020Z 17007KT 9999 SCT033 04/02 Q1001 BLU+

EXPIRED METARs :
  • 121920Z 20005KT 9999 BKN030 04/03 Q1001 BLU
  • 121820Z 21007KT 9999 SCT030 BKN060 05/03 Q1001 BLU

TAF TAF ETNW
Valid from the 12 at 18:00 until the 13 at 18:00 UTC


121723Z 1218/1318 15008KT 9999 NSW SCT020 BKN030
TEMPO 1218/1220 19015G25KT 4000 SHRA BKN010 BKN020CB
BECMG 1220/1222 17005KT 8000 NSW FEW030 SCT240
TEMPO 1301/1307 13003KT 3000 BR BKN005
BECMG 1308/1310 19010KT 9000 NSW FEW015 BKN030
TEMPO 1310/1318 23012G22KT 5000 -RA SCT007 BKN015 BY ETGL



MET'MAP, your aeronautical weather chart ! - Copyright ORBIFLY December 2007 - Disclaimer

ORBIFLY MET'MAP TEAM :

Programming & Development : Alexandra Zaïnal
Concept & Development : Baudouin d'Aumeries
Co-Development & Prog : Marc-Olivier Méhu
Technical & hardware support : Manuel Goepfert

Contact : metmap@orbifly.com




SOURCES & CREDITS :

   NOAA